AirNav   Air Wisconsin Airman Trainee
 
 419 users online  

AL25 Spratling Field Airport
Roba, Alabama, USA

GOING TO ROBA?


FAA INFORMATION EFFECTIVE 28 MARCH 2019

Location

FAA Identifier: AL25
Lat/Long: 32-14-32.5270N / 085-36-03.8140W
32-14.542117N / 085-36.063567W
32.2423686 / -85.6010594
(estimated)
Elevation: 368 ft. / 112 m (estimated)
Variation: 01W (1985)
From city: 1 mile W of ROBA, AL
Time zone: UTC -5 (UTC -6 during Standard Time)
Zip code: 36089

Airport Operations

Airport use: Private use. Permission required prior to landing
Activation date: 09/1979
Control tower: no
ARTCC: ATLANTA CENTER
FSS: ANNISTON FLIGHT SERVICE STATION
Attendance: UNATNDD
Wind indicator: no
Segmented circle: no

Nearby radio navigation aids

VOR radial/distance  VOR name  Freq  Var
TGEr165/15.0TUSKEGEE VOR/DME117.3002E
EUFr304/29.7EUFAULA VORTAC109.2002E
LSFr262/31.3LAWSON VOR/DME111.4002W
MGMr085/36.5MONTGOMERY VORTAC112.1003E
CSGr232/37.1COLUMBUS VORTAC117.1001E

 
NDB name  Hdg/Dist  Freq  Var  ID
LAWSON266/29.533502WAWS .- .-- ...
BLOOD050/35.636504WTOI - --- ..

Airport Services

Runway Information

Runway 9/27

Dimensions: 1600 x 100 ft. / 488 x 30 m
Surface: turf
RUNWAY 9  RUNWAY 27
Traffic pattern: leftleft

Airport Ownership and Management from official FAA records

Ownership: Privately-owned
Owner: B B SPRATLING JR
10170 CO RD 2
ROBA, AL 36089
Phone 205-485-3291
Manager: B B SPRATLING JR
10170 CO RD 2
ROBA, AL 36089
Phone 205-485-3291

Airport Operational Statistics

Aircraft based on the field: 1
Single engine airplanes: 1
    

Instrument Procedures

There are no published instrument procedures at AL25.

Some nearby airports with instrument procedures:

06A - Moton Field Municipal Airport (14 nm N)
11A - Clayton Municipal Airport (22 nm S)
KAUO - Auburn University Regional Airport (24 nm N)
KEUF - Weedon Field Airport (30 nm SE)
KTOI - Troy Municipal Airport at N Kenneth Campbell Field (31 nm SW)
 
Loc | Ops | Rwys | IFR | FBO | Links
Com | Nav | Svcs | Stats | Notes
Area around AL25 (Spratling Field Airport)
 
Road maps at: MapQuest Bing Google
 
Aerial photo
No photo
 
Sectional chart

 
Airport distance calculator
Flying to Spratling Field Airport? Find the distance to fly.

From to AL25

Sunrise and sunset
Times for 23-Apr-2019
 Local
(UTC-5)
 Zulu
(UTC)
Morning civil twilight05:4010:40
Sunrise06:0511:05
Sunset19:1600:16
Evening civil twilight19:4200:42

Current date and time
Zulu (UTC)  23-Apr-2019 09:57:50
Local (UTC-5)  23-Apr-2019 04:57:50
 
METAR
KAUO 
24nm NE 
230856Z AUTO 35004KT 10SM CLR 14/11 A3013 RMK AO2 SLP216 T01390106 56010
KLSF 
31nm E 
230856Z 00000KT 7SM CLR 10/10 A3010 RMK AO2A VIS 2 1/2 RWY15 SLP197 T01010101 57007 $
KTOI 
32nm SW 
230953Z AUTO 00000KT 10SM CLR 10/09 A3012 RMK AO2 SLP197 T01000094
KCSG 
37nm NE 
230951Z AUTO 00000KT 10SM CLR 13/11 A3011 RMK AO2 SLP191 T01280111
KMXF 
40nm W 
230856Z AUTO 00000KT 10SM CLR 12/11 A3010 RMK AO2 SLP195 T01170112 56005
KMGM 
41nm W 
230953Z AUTO 00000KT 10SM CLR 11/11 A3012 RMK AO2 SLP198 T01110106
KALX 
45nm NW 
230935Z AUTO 00000KT 10SM CLR 10/10 A3011 RMK AO2 T01030095
K1A9 
48nm W 
230935Z AUTO 00000KT 10SM CLR 10/10 A3012 RMK AO2 T01000100
TAF
KLSF 
31nm E 
230100Z 2301/2407 VRB06KT 9999 SKC QNH3009INS TEMPO 2306/2312 1600 BR BECMG 2320/2321 25005KT 9999 SCT250 QNH3004INS TX29/2321Z TN10/2311Z
KTOI 
32nm SW 
230520Z 2306/2406 00000KT P6SM FEW250 FM231700 23006KT P6SM SCT250 FM240000 00000KT P6SM BKN250
KCSG 
37nm NE 
230520Z 2306/2406 VRB03KT P6SM SKC FM231500 25008KT P6SM SCT250 FM240000 24003KT P6SM BKN250
NOTAMs
Click for the latest NOTAMs
NOTAMs are issued by the DoD/FAA and will open in a separate window not controlled by AirNav.

 

 
 

Would you like to see your business listed on this page?

 If your business provides an interesting product or service to pilots, flight crews, aircraft, or users of the Spratling Field Airport, you should consider listing it here.  To start the listing process, click on the button below
 
Add a business
 

Other Pages about Spratling Field Airport

Update a link
 
Copyright © AirNav, LLC. All rights reserved. Privacy Policy  Contact